Terminal Aerodrome Forecast
Issued by NWS

Current Version | Previous Version | Text Only | Print | Product List | Glossary On
Versions: 1 2 3 4 5 6 7 8 9 10 11 12 13 14 15 16 17 18 19 20 21 22 23 24 25 26 27 28 29 30
000
FTAK31 PAFA 251140
TAFAOT
TAF
PAOT 251140Z 2512/2612 01008KT P6SM VCSH BKN015 BKN080
     FM251900 35008KT P6SM VCSH BKN035 BKN100
     FM260600 33008KT P6SM SCT100 BKN200=

USA.gov is the U.S. government's official web portal to all federal, state and local government web resources and services.